Time;durP1;ratioP1;P1;durP2;ratioP2;P2;SDS_P1;SDS_P2;PMS_P1;PMS_P2;Temp;Humidity;BMP_temperature;BMP_pressure;BME280_temperature;BME280_humidity;BME280_pressure;Samples;Min_cycle;Max_cycle;Signal;HPM_P1;HPM_P2
2023/01/20 00:00:27;;;;;;;11.35;3.03;;;;;;;-1.33;100.00;100416.81;7391384;19;20202;-64
2023/01/20 00:02:57;;;;;;;13.07;3.83;;;;;;;-1.32;100.00;100412.63;7389183;19;20147;-64
2023/01/20 00:05:29;;;;;;;6.35;3.10;;;;;;;-1.42;100.00;100416.03;7393214;19;21008;-64
2023/01/20 00:07:59;;;;;;;13.13;4.00;;;;;;;-1.35;100.00;100413.25;7387759;19;20139;-66
2023/01/20 00:10:28;;;;;;;7.80;3.80;;;;;;;-1.34;100.00;100416.69;7391506;19;20171;-64
2023/01/20 00:12:58;;;;;;;8.43;3.17;;;;;;;-1.37;100.00;100424.91;7389330;19;20143;-64
2023/01/20 00:15:28;;;;;;;8.57;3.53;;;;;;;-1.40;100.00;100417.03;7393092;19;20611;-63
2023/01/20 00:17:57;;;;;;;12.68;3.55;;;;;;;-1.46;100.00;100419.94;7388527;19;20162;-64
2023/01/20 00:20:29;;;;;;;10.32;3.00;;;;;;;-1.47;100.00;100414.75;7390962;19;20180;-64
2023/01/20 00:22:59;;;;;;;8.02;3.05;;;;;;;-1.50;100.00;100410.31;7389057;19;20134;-64
2023/01/20 00:25:28;;;;;;;9.45;3.20;;;;;;;-1.53;100.00;100410.94;7392703;19;20143;-65
2023/01/20 00:27:58;;;;;;;8.63;3.67;;;;;;;-1.56;100.00;100408.16;7389878;19;20591;-64
2023/01/20 00:30:27;;;;;;;8.65;4.10;;;;;;;-1.54;100.00;100406.63;7390351;19;20182;-64
2023/01/20 00:32:57;;;;;;;12.05;3.00;;;;;;;-1.56;100.00;100412.31;7388616;19;20135;-64
2023/01/20 00:35:26;;;;;;;13.38;2.90;;;;;;;-1.53;100.00;100413.47;7392380;19;20151;-66
2023/01/20 00:37:58;;;;;;;6.22;2.80;;;;;;;-1.57;100.00;100410.56;7387614;19;20272;-64
2023/01/20 00:40:27;;;;;;;13.85;3.45;;;;;;;-1.52;100.00;100409.31;7395155;19;20178;-64
2023/01/20 00:42:57;;;;;;;6.72;3.25;;;;;;;-1.55;100.00;100404.88;7396180;19;20171;-64
2023/01/20 00:45:26;;;;;;;10.40;4.10;;;;;;;-1.54;100.00;100403.25;7395082;19;20147;-65
2023/01/20 00:47:56;;;;;;;6.50;3.60;;;;;;;-1.57;100.00;100406.41;7396810;19;20145;-64
2023/01/20 00:50:26;;;;;;;6.38;2.88;;;;;;;-1.55;100.00;100402.34;7397701;19;20187;-64
2023/01/20 00:52:58;;;;;;;8.55;3.30;;;;;;;-1.60;100.00;100406.13;7393227;19;20824;-64
2023/01/20 00:55:27;;;;;;;6.50;3.38;;;;;;;-1.60;100.00;100411.19;7398911;19;20167;-62
2023/01/20 00:57:57;;;;;;;19.58;3.67;;;;;;;-1.59;100.00;100407.03;7395247;19;20142;-64
2023/01/20 01:00:27;;;;;;;13.75;3.75;;;;;;;-1.60;100.00;100413.72;7396707;19;20174;-65
2023/01/20 01:02:56;;;;;;;8.85;3.72;;;;;;;-1.57;100.00;100414.00;7396136;19;20139;-64
2023/01/20 01:05:26;;;;;;;9.57;3.38;;;;;;;-1.60;100.00;100415.38;7398677;19;20528;-64
2023/01/20 01:07:58;;;;;;;8.02;3.45;;;;;;;-1.63;100.00;100426.13;7393786;19;20166;-64
2023/01/20 01:10:27;;;;;;;6.75;3.30;;;;;;;-1.62;100.00;100427.88;7395986;19;20177;-64
2023/01/20 01:12:56;;;;;;;8.38;3.58;;;;;;;-1.60;100.00;100428.91;7395851;19;20568;-64
2023/01/20 01:15:26;;;;;;;8.10;3.75;;;;;;;-1.60;100.00;100426.38;7398420;19;20147;-65
2023/01/20 01:17:57;;;;;;;11.85;4.20;;;;;;;-1.61;100.00;100433.81;7393549;19;20150;-64
2023/01/20 01:20:27;;;;;;;7.63;3.85;;;;;;;-1.59;100.00;100435.72;7396236;19;20175;-65
2023/01/20 01:22:59;;;;;;;11.40;3.90;;;;;;;-1.60;100.00;100439.00;7394740;19;20143;-64
2023/01/20 01:25:29;;;;;;;9.65;3.90;;;;;;;-1.67;100.00;100431.66;7398794;19;20514;-65
2023/01/20 01:27:58;;;;;;;10.27;3.75;;;;;;;-1.65;100.00;100437.72;7395878;19;20544;-65
2023/01/20 01:30:28;;;;;;;11.73;4.70;;;;;;;-1.65;100.00;100437.72;7396200;19;20166;-64
2023/01/20 01:32:57;;;;;;;12.05;3.80;;;;;;;-1.66;100.00;100441.03;7394315;19;20139;-64
2023/01/20 01:35:27;;;;;;;13.40;4.68;;;;;;;-1.69;100.00;100445.84;7397810;19;20149;-64
2023/01/20 01:37:56;;;;;;;9.45;4.85;;;;;;;-1.69;100.00;100449.22;7393618;19;20623;-64
2023/01/20 01:40:28;;;;;;;10.88;4.57;;;;;;;-1.71;100.00;100442.25;7396215;19;20189;-62
2023/01/20 01:42:57;;;;;;;13.77;5.63;;;;;;;-1.65;100.00;100446.22;7394786;19;20131;-64
2023/01/20 01:45:31;;;;;;;9.95;4.80;;;;;;;-1.68;100.00;100447.59;7397657;19;20143;-64
2023/01/20 01:48:08;;;;;;;12.60;5.47;;;;;;;-1.72;100.00;100458.19;7394202;19;20624;-65
2023/01/20 01:50:41;;;;;;;15.13;5.82;;;;;;;-1.73;100.00;100459.88;7395412;19;20190;-64
2023/01/20 01:53:11;;;;;;;11.25;6.30;;;;;;;-1.68;100.00;100458.63;7393221;19;20131;-63
2023/01/20 01:55:45;;;;;;;12.02;6.13;;;;;;;-1.67;100.00;100459.50;7398647;19;20166;-64
2023/01/20 01:58:17;;;;;;;20.55;7.40;;;;;;;-1.68;100.00;100467.84;7392678;19;20193;-64
2023/01/20 02:00:47;;;;;;;15.43;6.88;;;;;;;-1.74;100.00;100467.31;7396377;19;20631;-64
2023/01/20 02:03:16;;;;;;;12.10;6.53;;;;;;;-1.64;100.00;100469.91;7390520;19;20198;-62
2023/01/20 02:05:46;;;;;;;21.08;7.15;;;;;;;-1.67;100.00;100474.69;7397438;19;20627;-64
2023/01/20 02:08:16;;;;;;;15.93;6.78;;;;;;;-1.65;100.00;100483.28;7391391;19;20194;-64
2023/01/20 02:10:48;;;;;;;15.70;6.93;;;;;;;-1.73;100.00;100490.22;7396630;19;20175;-64
2023/01/20 02:13:17;;;;;;;28.63;8.65;;;;;;;-1.67;100.00;100489.84;7393053;19;20190;-64
2023/01/20 02:15:55;;;;;;;12.52;7.35;;;;;;;-1.71;100.00;100500.47;7397461;19;20167;-64
2023/01/20 02:18:39;;;;;;;14.80;8.45;;;;;;;-1.72;100.00;100501.22;7392771;19;20182;-64
2023/01/20 02:21:34;;;;;;;21.40;8.75;;;;;;;-1.72;100.00;100507.19;7396587;19;20139;-64
2023/01/20 02:24:26;;;;;;;24.73;9.73;;;;;;;-1.79;100.00;100504.88;7391922;19;20210;-64
2023/01/20 02:27:04;;;;;;;21.20;10.65;;;;;;;-1.77;100.00;100511.84;7396006;19;20139;-64
2023/01/20 02:30:03;;;;;;;18.85;9.68;;;;;;;-1.75;100.00;100513.63;7393158;19;20221;-65
2023/01/20 02:32:39;;;;;;;22.60;10.52;;;;;;;-1.77;100.00;100513.47;7396658;19;20142;-64
2023/01/20 02:35:13;;;;;;;23.30;10.32;;;;;;;-1.78;100.00;100520.16;7394104;19;20186;-65
2023/01/20 02:37:48;;;;;;;25.67;12.20;;;;;;;-1.79;100.00;100525.97;7396856;19;20155;-64
2023/01/20 02:40:27;;;;;;;22.25;10.90;;;;;;;-1.75;100.00;100523.72;7392853;19;20204;-64
2023/01/20 02:43:01;;;;;;;29.85;11.80;;;;;;;-1.76;100.00;100532.94;7393067;19;20142;-65
2023/01/20 02:45:37;;;;;;;28.75;11.20;;;;;;;-1.80;100.00;100533.47;7395819;19;20167;-64
2023/01/20 02:48:14;;;;;;;30.52;13.40;;;;;;;-1.81;100.00;100537.63;7393122;19;20151;-64
2023/01/20 02:50:48;;;;;;;24.30;10.30;;;;;;;-1.82;100.00;100535.84;7395362;19;20178;-65
2023/01/20 02:53:18;;;;;;;27.95;12.02;;;;;;;-1.83;100.00;100534.06;7388164;19;20194;-65
2023/01/20 02:55:49;;;;;;;27.55;12.80;;;;;;;-1.84;100.00;100534.81;7396775;19;20150;-64
2023/01/20 02:58:22;;;;;;;38.38;14.38;;;;;;;-1.88;100.00;100535.31;7391575;19;20190;-65
2023/01/20 03:00:55;;;;;;;28.63;13.52;;;;;;;-1.82;100.00;100534.94;7393593;19;20269;-64
2023/01/20 03:03:31;;;;;;;26.85;13.45;;;;;;;-1.79;100.00;100537.75;7388910;19;20678;-63
2023/01/20 03:06:04;;;;;;;31.10;14.23;;;;;;;-1.85;100.00;100534.69;7395254;19;20153;-64
2023/01/20 03:08:34;;;;;;;37.70;15.77;;;;;;;-1.87;100.00;100544.66;7391348;19;20197;-64
2023/01/20 03:11:06;;;;;;;46.35;17.33;;;;;;;-1.81;100.00;100539.25;7392738;19;20613;-64
2023/01/20 03:13:39;;;;;;;38.22;17.20;;;;;;;-1.72;100.00;100542.59;7389534;19;20793;-64
2023/01/20 03:16:10;;;;;;;41.45;17.20;;;;;;;-1.78;100.00;100542.94;7395133;19;20540;-64
2023/01/20 03:18:43;;;;;;;41.45;17.40;;;;;;;-1.72;100.00;100549.28;7391034;19;20190;-64
2023/01/20 03:21:13;;;;;;;46.08;17.58;;;;;;;-1.70;100.00;100550.31;7394715;19;20154;-64
2023/01/20 03:23:45;;;;;;;35.95;16.60;;;;;;;-1.70;100.00;100552.84;7391635;19;20657;-64
2023/01/20 03:26:16;;;;;;;36.25;14.80;;;;;;;-1.71;100.00;100551.97;7395208;19;20830;-64
2023/01/20 03:28:47;;;;;;;27.77;11.07;;;;;;;-1.73;100.00;100553.47;7391265;19;20194;-64
2023/01/20 03:31:20;;;;;;;32.08;14.32;;;;;;;-1.70;100.00;100558.78;7394517;19;20157;-65
2023/01/20 03:33:54;;;;;;;25.90;10.60;;;;;;;-1.72;100.00;100561.94;7391154;19;20544;-63
2023/01/20 03:36:25;;;;;;;47.38;21.33;;;;;;;-1.71;100.00;100568.75;7395030;19;20135;-64
2023/01/20 03:38:56;;;;;;;31.17;13.88;;;;;;;-1.70;100.00;100576.50;7389654;19;21073;-63
2023/01/20 03:41:32;;;;;;;45.40;17.33;;;;;;;-1.68;100.00;100569.06;7394467;19;20203;-64
2023/01/20 03:44:11;;;;;;;57.38;22.58;;;;;;;-1.69;100.00;100574.88;7389005;19;20185;-64
2023/01/20 03:46:44;;;;;;;30.58;13.85;;;;;;;-1.69;100.00;100575.75;7394967;19;20145;-64
2023/01/20 03:49:21;;;;;;;55.33;22.55;;;;;;;-1.69;100.00;100582.47;7389531;19;20205;-64
2023/01/20 03:51:57;;;;;;;60.80;23.75;;;;;;;-1.68;100.00;100594.34;7393192;19;20142;-64
2023/01/20 03:54:32;;;;;;;37.13;17.45;;;;;;;-1.75;100.00;100597.09;7390786;19;20198;-63
2023/01/20 03:57:06;;;;;;;50.80;18.38;;;;;;;-1.74;100.00;100598.88;7394105;19;20518;-64
2023/01/20 03:59:37;;;;;;;42.03;18.45;;;;;;;-1.74;100.00;100597.25;7389456;19;20209;-64
2023/01/20 04:02:08;;;;;;;35.85;16.23;;;;;;;-1.75;100.00;100604.69;7394523;19;20139;-64
2023/01/20 04:04:42;;;;;;;49.58;21.48;;;;;;;-1.71;100.00;100605.09;7390384;19;20197;-63
2023/01/20 04:07:14;;;;;;;60.60;23.90;;;;;;;-1.72;100.00;100607.47;7393086;19;20150;-64
2023/01/20 04:09:46;;;;;;;63.08;19.15;;;;;;;-1.72;100.00;100612.53;7388243;19;20197;-62
2023/01/20 04:12:16;;;;;;;59.33;23.48;;;;;;;-1.74;100.00;100621.66;7392784;19;20504;-63
2023/01/20 04:14:45;;;;;;;52.13;22.30;;;;;;;-1.74;100.00;100624.16;7392762;19;20186;-65
2023/01/20 04:17:15;;;;;;;57.60;25.73;;;;;;;-1.74;100.00;100634.28;7400978;19;20142;-64
2023/01/20 04:19:47;;;;;;;38.70;14.70;;;;;;;-1.76;100.00;100634.16;7396341;19;20202;-63
2023/01/20 04:22:21;;;;;;;37.80;15.90;;;;;;;-1.77;100.00;100645.94;7400262;19;20511;-65
2023/01/20 04:24:53;;;;;;;58.85;23.75;;;;;;;-1.77;100.00;100639.97;7396993;19;20200;-63
2023/01/20 04:27:22;;;;;;;53.80;20.08;;;;;;;-1.74;100.00;100649.47;7401452;19;20505;-64
2023/01/20 04:29:52;;;;;;;67.50;25.70;;;;;;;-1.77;100.00;100656.03;7395231;19;20198;-64
2023/01/20 04:32:21;;;;;;;48.03;16.35;;;;;;;-1.72;100.00;100660.59;7400046;19;20513;-63
2023/01/20 04:34:54;;;;;;;50.80;20.75;;;;;;;-1.76;100.00;100664.50;7396666;19;20640;-64
2023/01/20 04:37:24;;;;;;;45.97;18.45;;;;;;;-1.73;100.00;100674.91;7400806;19;20139;-64
2023/01/20 04:39:57;;;;;;;62.45;27.70;;;;;;;-1.70;100.00;100676.84;7394667;19;20194;-64
2023/01/20 04:42:26;;;;;;;41.42;17.45;;;;;;;-1.71;100.00;100685.16;7399522;19;20498;-64
2023/01/20 04:44:56;;;;;;;62.35;26.02;;;;;;;-1.69;100.00;100686.19;7396288;19;20868;-64
2023/01/20 04:47:25;;;;;;;73.32;27.27;;;;;;;-1.65;100.00;100691.66;7400140;19;20146;-64
2023/01/20 04:49:57;;;;;;;66.95;27.67;;;;;;;-1.62;100.00;100703.72;7392214;19;20202;-64
2023/01/20 04:52:27;;;;;;;62.60;24.17;;;;;;;-1.65;100.00;100708.47;7399627;19;20154;-65
2023/01/20 04:54:56;;;;;;;54.92;24.77;;;;;;;-1.62;100.00;100711.28;7396592;19;20194;-65
2023/01/20 04:57:26;;;;;;;62.60;25.83;;;;;;;-1.66;100.00;100721.88;7399822;19;20130;-64
2023/01/20 04:59:55;;;;;;;59.35;25.65;;;;;;;-1.63;100.00;100724.72;7395122;19;20209;-65
2023/01/20 05:02:25;;;;;;;52.67;22.00;;;;;;;-1.63;100.00;100730.63;7399814;19;20142;-64
2023/01/20 05:04:57;;;;;;;49.08;21.17;;;;;;;-1.66;100.00;100727.84;7395142;19;20187;-64
2023/01/20 05:07:26;;;;;;;61.70;23.52;;;;;;;-1.66;100.00;100737.97;7399079;19;20150;-64
2023/01/20 05:09:56;;;;;;;64.82;25.35;;;;;;;-1.63;100.00;100744.94;7389465;19;20678;-64
2023/01/20 05:12:25;;;;;;;56.28;22.50;;;;;;;-1.63;100.00;100745.81;7399374;19;20500;-64
2023/01/20 05:14:55;;;;;;;60.05;24.50;;;;;;;-1.63;100.00;100755.94;7395116;19;20199;-64
2023/01/20 05:17:24;;;;;;;53.70;21.50;;;;;;;-1.64;100.00;100753.31;7398910;19;20479;-64
2023/01/20 05:19:53;;;;;;;49.13;20.73;;;;;;;-1.66;100.00;100755.69;7394194;19;20797;-64
2023/01/20 05:22:25;;;;;;;55.97;22.27;;;;;;;-1.56;100.00;100762.47;7398398;19;20607;-64
2023/01/20 05:24:55;;;;;;;51.72;17.63;;;;;;;-1.61;100.00;100763.69;7395578;19;20197;-64
2023/01/20 05:27:24;;;;;;;56.75;19.30;;;;;;;-1.60;100.00;100773.03;7397131;19;20498;-64
2023/01/20 05:29:54;;;;;;;31.45;11.05;;;;;;;-1.64;100.00;100773.53;7393735;19;20194;-62
2023/01/20 05:32:23;;;;;;;50.08;20.13;;;;;;;-1.65;100.00;100775.16;7398727;19;20143;-64
2023/01/20 05:34:53;;;;;;;56.17;21.60;;;;;;;-1.60;100.00;100783.16;7394796;19;20190;-63
2023/01/20 05:37:22;;;;;;;34.17;14.65;;;;;;;-1.63;100.00;100798.09;7398430;19;20142;-64
2023/01/20 05:39:54;;;;;;;49.97;11.48;;;;;;;-1.59;100.00;100796.72;7393189;19;20230;-64
2023/01/20 05:42:24;;;;;;;51.78;21.13;;;;;;;-1.61;100.00;100804.16;7397781;19;20145;-64
2023/01/20 05:44:53;;;;;;;55.40;22.15;;;;;;;-1.59;100.00;100809.38;7391449;19;20734;-64
2023/01/20 05:47:23;;;;;;;54.45;20.58;;;;;;;-1.58;100.00;100814.59;7398070;19;20141;-64
2023/01/20 05:49:52;;;;;;;60.65;24.63;;;;;;;-1.57;100.00;100810.41;7392834;19;20194;-64
2023/01/20 05:52:22;;;;;;;47.63;14.85;;;;;;;-1.56;100.00;100815.63;7397755;19;20174;-64
2023/01/20 05:54:51;;;;;;;51.70;20.40;;;;;;;-1.55;100.00;100824.97;7394361;19;20670;-65
2023/01/20 05:57:25;;;;;;;60.75;22.20;;;;;;;-1.53;100.00;100827.66;7397335;19;20160;-64
2023/01/20 05:59:54;;;;;;;49.88;19.52;;;;;;;-1.54;100.00;100836.88;7392662;19;20197;-63
2023/01/20 06:02:24;;;;;;;43.10;16.08;;;;;;;-1.57;100.00;100841.69;7396207;19;20139;-64
2023/01/20 06:04:54;;;;;;;61.75;22.63;;;;;;;-1.51;100.00;100842.25;7394799;19;20196;-64
2023/01/20 06:07:24;;;;;;;57.58;22.73;;;;;;;-1.52;100.00;100848.06;7396440;19;20157;-65
2023/01/20 06:09:53;;;;;;;62.38;22.02;;;;;;;-1.51;100.00;100852.38;7392065;19;20205;-63
2023/01/20 06:12:26;;;;;;;52.45;20.90;;;;;;;-1.50;100.00;100849.06;7394087;19;20150;-64
2023/01/20 06:14:55;;;;;;;55.20;20.17;;;;;;;-1.53;100.00;100858.91;7393724;19;20194;-64
2023/01/20 06:17:25;;;;;;;62.45;23.55;;;;;;;-1.51;100.00;100872.59;7396697;19;20131;-64
2023/01/20 06:19:54;;;;;;;59.42;21.55;;;;;;;-1.50;100.00;100881.97;7392345;19;20563;-64
2023/01/20 06:22:24;;;;;;;55.70;20.92;;;;;;;-1.48;100.00;100882.13;7396061;19;20135;-64
2023/01/20 06:24:54;;;;;;;57.85;21.67;;;;;;;-1.49;100.00;100885.38;7392991;19;20553;-64
2023/01/20 06:27:26;;;;;;;53.25;20.13;;;;;;;-1.51;100.00;100882.75;7396125;19;20553;-63
2023/01/20 06:29:55;;;;;;;57.28;21.90;;;;;;;-1.46;100.00;100890.75;7391851;19;20206;-64
2023/01/20 06:32:25;;;;;;;28.45;10.07;;;;;;;-1.50;100.00;100901.31;7395850;19;20506;-64
2023/01/20 06:34:54;;;;;;;45.78;16.52;;;;;;;-1.47;100.00;100903.25;7392549;19;20190;-64
2023/01/20 06:37:24;;;;;;;50.20;20.30;;;;;;;-1.45;100.00;100907.72;7396192;19;20166;-63
2023/01/20 06:39:53;;;;;;;64.35;22.35;;;;;;;-1.48;100.00;100921.72;7391470;19;20225;-64
2023/01/20 06:42:25;;;;;;;60.83;20.92;;;;;;;-1.49;100.00;100920.81;7395073;19;21678;-64
2023/01/20 06:44:55;;;;;;;42.22;16.67;;;;;;;-1.46;100.00;100930.34;7392602;19;20714;-63
2023/01/20 06:47:24;;;;;;;55.88;21.80;;;;;;;-1.45;100.00;100927.09;7395202;19;20146;-64
2023/01/20 06:49:54;;;;;;;51.60;17.17;;;;;;;-1.46;100.00;100935.41;7392748;19;20226;-64
2023/01/20 06:52:23;;;;;;;50.17;17.48;;;;;;;-1.48;100.00;100945.41;7394929;19;20163;-62
2023/01/20 06:54:53;;;;;;;50.10;19.38;;;;;;;-1.46;100.00;100931.25;7392554;19;20198;-63
2023/01/20 06:57:22;;;;;;;43.63;15.95;;;;;;;-1.45;100.00;100953.28;7395749;19;20139;-64
2023/01/20 06:59:54;;;;;;;52.92;19.00;;;;;;;-1.45;100.00;100948.22;7391371;19;20174;-64
2023/01/20 07:02:24;;;;;;;40.05;14.90;;;;;;;-1.43;100.00;100949.22;7387367;19;20863;-64
2023/01/20 07:04:54;;;;;;;52.88;18.23;;;;;;;-1.43;100.00;100951.75;7387497;19;20162;-64
2023/01/20 07:07:23;;;;;;;52.80;20.20;;;;;;;-1.43;100.00;100966.09;7389475;19;20147;-64
2023/01/20 07:09:55;;;;;;;31.52;11.93;;;;;;;-1.39;100.00;100966.50;7392721;19;20508;-64
2023/01/20 07:12:25;;;;;;;56.92;21.15;;;;;;;-1.35;100.00;100967.69;7388207;19;20147;-64
2023/01/20 07:14:57;;;;;;;61.13;21.83;;;;;;;-1.22;100.00;100968.06;7394382;19;20495;-64
2023/01/20 07:17:26;;;;;;;43.40;15.43;;;;;;;-1.33;100.00;100977.97;7389560;19;20182;-63
2023/01/20 07:19:56;;;;;;;45.60;17.67;;;;;;;-1.35;100.00;100990.47;7391732;19;20174;-63
2023/01/20 07:22:26;;;;;;;44.60;18.85;;;;;;;-1.27;100.00;100989.53;7390542;19;20513;-63
2023/01/20 07:24:55;;;;;;;42.03;16.92;;;;;;;-1.26;100.00;100995.50;7393207;19;20134;-63
2023/01/20 07:27:24;;;;;;;50.88;19.35;;;;;;;-1.22;100.00;101005.19;7391205;19;20139;-63
2023/01/20 07:29:57;;;;;;;57.60;20.60;;;;;;;-1.31;100.00;101007.72;7392194;19;20710;-66
2023/01/20 07:32:26;;;;;;;32.53;12.02;;;;;;;-1.37;100.00;101002.09;7384470;19;20143;-65
2023/01/20 07:34:55;;;;;;;27.25;11.48;;;;;;;-1.36;100.00;101008.94;7393743;19;20167;-65
2023/01/20 07:37:25;;;;;;;46.30;15.70;;;;;;;-1.39;100.00;101018.78;7391358;19;20153;-64
2023/01/20 07:39:54;;;;;;;64.22;19.48;;;;;;;-1.35;100.00;101025.91;7394415;19;20514;-65
2023/01/20 07:42:24;;;;;;;49.20;18.70;;;;;;;-1.31;100.00;101037.22;7390562;19;20142;-65
2023/01/20 07:44:53;;;;;;;44.97;13.68;;;;;;;-1.36;100.00;101035.16;7392841;19;20622;-65
2023/01/20 07:47:25;;;;;;;32.63;12.20;;;;;;;-1.36;100.00;101051.97;7390957;19;20815;-63
2023/01/20 07:49:55;;;;;;;40.95;17.23;;;;;;;-1.32;100.00;101051.53;7393296;19;20171;-64
2023/01/20 07:52:24;;;;;;;36.33;13.07;;;;;;;-1.37;100.00;101058.66;7397627;19;20635;-65
2023/01/20 07:54:54;;;;;;;44.47;15.23;;;;;;;-1.36;100.00;101064.63;7400558;19;20139;-64
2023/01/20 07:57:23;;;;;;;66.30;20.73;;;;;;;-1.30;100.00;101070.28;7397802;19;20138;-64
2023/01/20 07:59:53;;;;;;;43.60;13.48;;;;;;;-1.30;100.00;101070.28;7398999;19;20550;-64
2023/01/20 08:02:25;;;;;;;34.13;14.70;;;;;;;-1.30;100.00;101076.97;7393876;19;20896;-64
2023/01/20 08:04:54;;;;;;;40.03;14.38;;;;;;;-1.34;100.00;101088.44;7400409;19;20596;-64
2023/01/20 08:07:24;;;;;;;37.00;12.07;;;;;;;-1.32;100.00;101091.13;7397256;19;20170;-64
2023/01/20 08:09:53;;;;;;;27.60;11.27;;;;;;;-1.31;100.00;101093.81;7398685;19;20188;-64
2023/01/20 08:12:23;;;;;;;49.33;16.33;;;;;;;-1.33;100.00;101095.31;7397179;19;20154;-63
2023/01/20 08:14:52;;;;;;;41.80;16.02;;;;;;;-1.22;100.00;101102.28;7398886;19;20135;-62
2023/01/20 08:17:24;;;;;;;36.10;14.02;;;;;;;-1.28;100.00;101121.94;7397653;19;20142;-63
2023/01/20 08:19:54;;;;;;;45.78;16.00;;;;;;;-1.23;100.00;101117.34;7397993;19;20170;-62
2023/01/20 08:22:24;;;;;;;61.10;19.70;;;;;;;-1.20;100.00;101117.63;7392712;19;20514;-62
2023/01/20 08:24:53;;;;;;;41.78;14.60;;;;;;;-1.25;100.00;101118.81;7397146;19;20178;-63
2023/01/20 08:27:23;;;;;;;39.15;12.02;;;;;;;-1.28;100.00;101123.63;7396191;19;20138;-63
2023/01/20 08:29:52;;;;;;;33.60;10.90;;;;;;;-1.30;100.00;101131.06;7395785;19;20667;-64
2023/01/20 08:32:24;;;;;;;28.55;11.27;;;;;;;-1.30;100.00;101131.06;7394651;19;20497;-63
2023/01/20 08:34:54;;;;;;;35.13;13.63;;;;;;;-1.27;100.00;101146.53;7397355;19;20147;-62
2023/01/20 08:37:23;;;;;;;38.92;15.77;;;;;;;-1.25;100.00;101147.59;7394933;19;20222;-62
2023/01/20 08:39:53;;;;;;;35.53;14.38;;;;;;;-1.20;100.00;101150.53;7395854;19;20166;-64
2023/01/20 08:42:22;;;;;;;35.15;12.60;;;;;;;-1.22;100.00;101155.47;7393257;19;20499;-63
2023/01/20 08:44:53;;;;;;;33.92;14.25;;;;;;;-1.21;100.00;101166.50;7397128;19;20608;-63
2023/01/20 08:47:25;;;;;;;35.15;14.63;;;;;;;-1.18;100.00;101165.91;7395311;19;20139;-65
2023/01/20 08:49:55;;;;;;;24.05;7.90;;;;;;;-1.24;100.00;101181.38;7395311;19;20204;-63
2023/01/20 08:52:24;;;;;;;27.75;9.07;;;;;;;-1.24;100.00;101182.28;7394031;19;20930;-61
2023/01/20 08:54:54;;;;;;;35.05;14.13;;;;;;;-1.20;100.00;101182.56;7397165;19;20142;-63
2023/01/20 08:57:26;;;;;;;40.53;14.65;;;;;;;-1.13;100.00;101185.84;7396114;19;20139;-63
2023/01/20 08:59:56;;;;;;;33.17;13.35;;;;;;;-1.09;100.00;101197.16;7396194;19;20174;-63
2023/01/20 09:02:28;;;;;;;43.03;13.38;;;;;;;-1.07;100.00;101195.69;7386404;19;20143;-64
2023/01/20 09:04:58;;;;;;;37.55;14.05;;;;;;;-1.00;100.00;101204.75;7397978;19;20159;-63
2023/01/20 09:07:28;;;;;;;39.53;14.50;;;;;;;-0.90;100.00;101209.03;7395868;19;21127;-65
2023/01/20 09:09:58;;;;;;;24.83;10.15;;;;;;;-0.93;100.00;101218.91;7396218;19;20166;-64
2023/01/20 09:12:27;;;;;;;24.08;9.60;;;;;;;-0.86;100.00;101226.34;7394997;19;21492;-64
2023/01/20 09:14:57;;;;;;;25.27;9.13;;;;;;;-0.84;100.00;101232.44;7398055;19;20488;-63
2023/01/20 09:17:29;;;;;;;29.00;11.70;;;;;;;-0.81;100.00;101240.34;7395703;19;20348;-65
2023/01/20 09:19:58;;;;;;;34.03;14.27;;;;;;;-0.74;100.00;101247.78;7396802;19;20267;-62
2023/01/20 09:22:27;;;;;;;36.17;14.15;;;;;;;-0.72;100.00;101251.34;7393608;19;20229;-63
2023/01/20 09:24:57;;;;;;;32.75;12.60;;;;;;;-0.62;100.00;101255.63;7397549;19;20139;-63
2023/01/20 09:27:26;;;;;;;37.17;15.15;;;;;;;-0.59;100.00;101257.56;7396162;19;20150;-63
2023/01/20 09:29:56;;;;;;;33.88;12.90;;;;;;;-0.61;100.00;101262.50;7398133;19;20194;-63
2023/01/20 09:32:25;;;;;;;26.83;8.70;;;;;;;-0.70;100.00;101270.16;7394471;19;20141;-63
2023/01/20 09:34:58;;;;;;;28.40;11.63;;;;;;;-0.71;100.00;101270.88;7397424;19;20607;-64
2023/01/20 09:45:52;;;;;;;25.80;9.45;;;;;;;-0.50;100.00;101306.63;7399238;19;20150;-64
2023/01/20 09:54:00;;;;;;;26.13;10.88;;;;;;;-0.54;100.00;101319.75;7393302;19;20194;-64
2023/01/20 09:56:30;;;;;;;31.33;11.15;;;;;;;-0.50;100.00;101319.31;7397954;19;20139;-63
2023/01/20 09:59:03;;;;;;;31.25;11.90;;;;;;;-0.51;100.00;101329.31;7393977;19;20190;-64
2023/01/20 10:01:36;;;;;;;29.35;12.43;;;;;;;-0.55;100.00;101336.59;7397215;19;20492;-64
2023/01/20 10:04:09;;;;;;;29.15;12.27;;;;;;;-0.50;100.00;101339.59;7390740;19;20182;-63
2023/01/20 10:06:43;;;;;;;35.28;14.40;;;;;;;-0.50;100.00;101334.53;7397634;19;20166;-61
2023/01/20 10:09:20;;;;;;;38.63;15.52;;;;;;;-0.49;100.00;101335.41;7393446;19;20547;-64
2023/01/20 10:11:51;;;;;;;30.05;13.25;;;;;;;-0.46;100.00;101331.50;7397392;19;20135;-63
2023/01/20 10:14:26;;;;;;;32.33;12.60;;;;;;;-0.48;100.00;101345.69;7394246;19;20178;-64
2023/01/20 10:17:01;;;;;;;32.97;9.15;;;;;;;-0.55;100.00;101349.28;7396482;19;20199;-63
2023/01/20 10:19:35;;;;;;;33.28;12.00;;;;;;;-0.57;100.00;101344.78;7393691;19;20201;-62
2023/01/20 10:22:11;;;;;;;47.28;22.05;;;;;;;-0.21;100.00;101338.03;7395159;19;20138;-65
2023/01/20 10:24:46;;;;;;;39.05;13.98;;;;;;;-0.18;100.00;101351.91;7396935;19;20186;-64
2023/01/20 10:27:15;;;;;;;33.95;11.35;;;;;;;-0.49;100.00;101341.38;7394364;19;20138;-62
2023/01/20 10:29:47;;;;;;;29.95;10.85;;;;;;;-0.53;100.00;101349.44;7396324;19;20172;-65
2023/01/20 10:32:24;;;;;;;29.90;12.45;;;;;;;-0.51;100.00;101347.91;7392510;19;20134;-63
2023/01/20 10:34:56;;;;;;;37.05;13.45;;;;;;;-0.37;100.00;101348.38;7395619;19;20134;-64
2023/01/20 10:37:28;;;;;;;32.90;13.13;;;;;;;-0.32;100.00;101344.59;7393454;19;20155;-64
2023/01/20 10:40:00;;;;;;;28.42;13.02;;;;;;;-0.28;100.00;101351.78;7394779;19;20170;-65
2023/01/20 10:42:30;;;;;;;31.85;12.55;;;;;;;-0.15;100.00;101354.72;7392433;19;20622;-64
2023/01/20 10:45:00;;;;;;;32.58;13.38;;;;;;;-0.23;100.00;101360.72;7394884;19;20135;-65
2023/01/20 10:47:38;;;;;;;33.22;13.27;;;;;;;-0.22;100.00;101357.44;7393523;19;20186;-64
2023/01/20 10:50:27;;;;;;;28.33;11.70;;;;;;;-0.18;100.00;101364.59;7394268;19;20172;-64
2023/01/20 10:53:14;;;;;;;37.88;14.68;;;;;;;0.02;100.00;101369.75;7391272;19;20186;-65
2023/01/20 10:55:55;;;;;;;31.85;12.13;;;;;;;0.04;100.00;101366.59;7396598;19;20138;-64
2023/01/20 10:58:28;;;;;;;35.35;11.88;;;;;;;0.00;100.00;101377.22;7391662;19;20241;-64
2023/01/20 11:00:58;;;;;;;28.00;13.35;;;;;;;0.20;100.00;101385.81;7393047;19;20631;-65
2023/01/20 11:03:38;;;;;;;27.52;11.57;;;;;;;0.35;100.00;101391.41;7389924;19;20221;-64
2023/01/20 11:06:08;;;;;;;37.60;15.05;;;;;;;0.50;100.00;101397.03;7390313;19;20295;-66
2023/01/20 11:08:40;;;;;;;42.10;16.83;;;;;;;0.66;100.00;101391.69;7392267;19;20182;-66
2023/01/20 11:11:15;;;;;;;28.17;12.23;;;;;;;0.65;100.00;101400.09;7394359;19;20141;-65
2023/01/20 11:13:44;;;;;;;29.73;11.98;;;;;;;0.51;100.00;101411.53;7392401;19;20202;-65
2023/01/20 11:16:18;;;;;;;34.83;14.45;;;;;;;0.71;100.00;101410.81;7394969;19;20163;-67
2023/01/20 11:18:58;;;;;;;32.15;12.95;;;;;;;0.72;100.00;101417.66;7392590;19;20186;-66
2023/01/20 11:21:29;;;;;;;26.77;10.80;;;;;;;0.78;100.00;101427.53;7394583;19;20162;-67
2023/01/20 11:24:01;;;;;;;32.75;12.88;;;;;;;1.04;100.00;101422.25;7388729;19;20439;-66
2023/01/20 11:26:34;;;;;;;27.10;10.83;;;;;;;0.67;100.00;101435.03;7394819;19;20626;-64
2023/01/20 11:29:05;;;;;;;29.08;11.55;;;;;;;0.73;100.00;101438.91;7391846;19;20952;-64
2023/01/20 11:31:38;;;;;;;31.20;12.05;;;;;;;0.62;100.00;101436.25;7394434;19;20154;-65
2023/01/20 11:34:22;;;;;;;30.92;13.07;;;;;;;1.03;100.00;101429.78;7390421;19;20193;-66
2023/01/20 11:36:52;;;;;;;29.98;13.55;;;;;;;1.12;100.00;101430.59;7393537;19;20142;-64